Airfield :
LOGIN :

Register | Disclaimer

   EN    FR    IT 

 










Legend :    VFR   Marginal VFR   IFR   Intensive IFR   Very Intensive IFR
Visi :
Ceiling :
>= 8 km
>= 3000ft
5 to 8 km
1000 to 3000 ft
1500m to 5 km
500 to 1000 ft
800 to 1500m
200 to 500 ft
< 800m
< 200 ft
Symbols :   Thunderstorms  Fog  Heavy snow  Heavy precipitations  Wind > 20 kt
SIGMETs :     Misc.  Thunderstorms  Icing  Turbulence  Mountain Waves  Volcanic Ashes






- Airport Elevation : 53 ft
- IATA code : LBC


EDHL - Lübeck

CURRENT METAR :
  • 121750Z 24003KT 210V280 9999 DZ SCT030 13/12 Q1010

EXPIRED METARs :
  • 121720Z 24004KT 210V280 9999 -RA SCT030 13/12 Q1010 REDZ
  • 121650Z 24004KT 210V310 9999 -RA BKN030 14/11 Q1009
  • 121620Z 24004KT 200V300 9999 -RA SCT030 15/10 Q1009
  • 121550Z 24007KT 210V320 9999 SCT028 15/10 Q1009
  • 121520Z VRB03KT 9999 FEW033 16/09 Q1009

TAF TAF EDHL
Valid from the 12 at 18:00 until the 12 at 21:00 UTC


121700Z 1218/1221 29005KT 9999 SCT030



MET'MAP, your aeronautical weather chart ! - Copyright ORBIFLY December 2007 - Disclaimer

ORBIFLY MET'MAP TEAM :

Programming & Development : Alexandra Zaïnal
Concept & original design : Baudouin d'Aumeries
Assistance for programming : Marc-Olivier Méhu
Technical & hardware support : Manuel Goepfert

Contact : metmap@orbifly.com




SOURCES & CREDITS :

   NOAA